sensor_id;sensor_type;location;lat;lon;timestamp;pressure;altitude;pressure_sealevel;temperature;humidity
15477;BME280;7840;42.702;23.296;2023-07-31T00:01:29;94719.50;;;20.86;100.00
15477;BME280;7840;42.702;23.296;2023-07-31T00:03:57;94720.31;;;20.86;100.00
15477;BME280;7840;42.702;23.296;2023-07-31T00:06:24;94733.13;;;20.89;100.00
15477;BME280;7840;42.702;23.296;2023-07-31T00:08:52;94732.78;;;20.91;100.00
15477;BME280;7840;42.702;23.296;2023-07-31T00:11:19;94726.13;;;20.97;100.00
15477;BME280;7840;42.702;23.296;2023-07-31T00:13:47;94735.66;;;20.86;100.00
15477;BME280;7840;42.702;23.296;2023-07-31T00:16:14;94726.47;;;20.87;100.00
15477;BME280;7840;42.702;23.296;2023-07-31T00:18:43;94725.34;;;20.96;100.00
15477;BME280;7840;42.702;23.296;2023-07-31T00:21:10;94723.44;;;20.97;100.00
15477;BME280;7840;42.702;23.296;2023-07-31T00:23:38;94721.41;;;20.76;100.00
15477;BME280;7840;42.702;23.296;2023-07-31T00:26:05;94716.19;;;20.71;100.00
15477;BME280;7840;42.702;23.296;2023-07-31T00:28:33;94707.97;;;20.76;100.00
15477;BME280;7840;42.702;23.296;2023-07-31T00:31:00;94692.75;;;20.81;100.00
15477;BME280;7840;42.702;23.296;2023-07-31T00:33:31;94694.31;;;20.90;100.00
15477;BME280;7840;42.702;23.296;2023-07-31T00:35:59;94692.28;;;20.79;100.00
15477;BME280;7840;42.702;23.296;2023-07-31T00:38:27;94681.03;;;20.76;100.00
15477;BME280;7840;42.702;23.296;2023-07-31T00:40:54;94678.03;;;20.69;100.00
15477;BME280;7840;42.702;23.296;2023-07-31T00:43:22;94678.09;;;20.52;100.00
15477;BME280;7840;42.702;23.296;2023-07-31T00:45:49;94687.56;;;20.58;100.00
15477;BME280;7840;42.702;23.296;2023-07-31T00:48:17;94694.50;;;20.42;100.00
15477;BME280;7840;42.702;23.296;2023-07-31T00:50:44;94682.97;;;20.50;100.00
15477;BME280;7840;42.702;23.296;2023-07-31T00:53:14;94680.94;;;20.47;100.00
15477;BME280;7840;42.702;23.296;2023-07-31T00:55:42;94680.28;;;20.41;100.00
15477;BME280;7840;42.702;23.296;2023-07-31T00:58:09;94670.19;;;20.47;100.00
15477;BME280;7840;42.702;23.296;2023-07-31T01:00:37;94667.16;;;20.40;100.00
15477;BME280;7840;42.702;23.296;2023-07-31T01:03:04;94661.47;;;20.33;100.00
15477;BME280;7840;42.702;23.296;2023-07-31T01:05:39;94665.06;;;20.37;100.00
15477;BME280;7840;42.702;23.296;2023-07-31T01:08:18;94664.00;;;20.46;100.00
15477;BME280;7840;42.702;23.296;2023-07-31T01:10:56;94668.41;;;20.34;100.00
15477;BME280;7840;42.702;23.296;2023-07-31T01:13:24;94668.56;;;20.29;100.00
15477;BME280;7840;42.702;23.296;2023-07-31T01:15:51;94650.84;;;20.28;100.00
15477;BME280;7840;42.702;23.296;2023-07-31T01:18:19;94647.69;;;20.26;100.00
15477;BME280;7840;42.702;23.296;2023-07-31T01:20:57;94642.63;;;20.15;100.00
15477;BME280;7840;42.702;23.296;2023-07-31T01:23:41;94644.84;;;20.13;100.00
15477;BME280;7840;42.702;23.296;2023-07-31T01:26:18;94649.91;;;20.06;100.00
15477;BME280;7840;42.702;23.296;2023-07-31T01:28:53;94639.78;;;20.03;100.00
15477;BME280;7840;42.702;23.296;2023-07-31T01:31:24;94635.84;;;20.01;100.00
15477;BME280;7840;42.702;23.296;2023-07-31T01:33:53;94633.47;;;19.99;100.00
15477;BME280;7840;42.702;23.296;2023-07-31T01:36:22;94634.09;;;19.96;100.00
15477;BME280;7840;42.702;23.296;2023-07-31T01:38:50;94638.53;;;19.92;100.00
15477;BME280;7840;42.702;23.296;2023-07-31T01:41:19;94632.66;;;19.90;100.00
15477;BME280;7840;42.702;23.296;2023-07-31T01:43:47;94629.03;;;19.86;100.00
15477;BME280;7840;42.702;23.296;2023-07-31T01:46:15;94624.28;;;19.83;100.00
15477;BME280;7840;42.702;23.296;2023-07-31T01:48:42;94624.13;;;19.79;100.00
15477;BME280;7840;42.702;23.296;2023-07-31T01:51:10;94625.06;;;19.75;100.00
15477;BME280;7840;42.702;23.296;2023-07-31T01:53:37;94629.31;;;19.76;100.00
15477;BME280;7840;42.702;23.296;2023-07-31T01:56:05;94631.41;;;19.79;100.00
15477;BME280;7840;42.702;23.296;2023-07-31T01:58:33;94628.38;;;19.72;100.00
15477;BME280;7840;42.702;23.296;2023-07-31T02:03:27;94633.59;;;19.68;100.00
15477;BME280;7840;42.702;23.296;2023-07-31T02:05:55;94630.91;;;19.68;100.00
15477;BME280;7840;42.702;23.296;2023-07-31T02:08:23;94622.06;;;19.67;100.00
15477;BME280;7840;42.702;23.296;2023-07-31T02:10:51;94617.63;;;19.72;100.00
15477;BME280;7840;42.702;23.296;2023-07-31T02:13:18;94634.09;;;19.79;100.00
15477;BME280;7840;42.702;23.296;2023-07-31T02:15:47;94635.03;;;19.83;100.00
15477;BME280;7840;42.702;23.296;2023-07-31T02:18:15;94628.84;;;19.82;100.00
15477;BME280;7840;42.702;23.296;2023-07-31T02:20:42;94628.84;;;19.82;100.00
15477;BME280;7840;42.702;23.296;2023-07-31T02:23:12;94630.59;;;19.87;100.00
15477;BME280;7840;42.702;23.296;2023-07-31T02:25:39;94625.09;;;19.92;100.00
15477;BME280;7840;42.702;23.296;2023-07-31T02:28:07;94626.81;;;19.88;100.00
15477;BME280;7840;42.702;23.296;2023-07-31T02:30:34;94626.19;;;19.91;100.00
15477;BME280;7840;42.702;23.296;2023-07-31T02:33:04;94636.94;;;20.00;100.00
15477;BME280;7840;42.702;23.296;2023-07-31T02:35:32;94632.81;;;20.02;100.00
15477;BME280;7840;42.702;23.296;2023-07-31T02:37:59;94628.41;;;20.15;100.00
15477;BME280;7840;42.702;23.296;2023-07-31T02:40:27;94641.34;;;20.21;100.00
15477;BME280;7840;42.702;23.296;2023-07-31T02:42:54;94636.63;;;20.18;100.00
15477;BME280;7840;42.702;23.296;2023-07-31T02:45:22;94642.47;;;20.20;100.00
15477;BME280;7840;42.702;23.296;2023-07-31T02:47:49;94643.59;;;20.19;100.00
15477;BME280;7840;42.702;23.296;2023-07-31T02:50:18;94654.97;;;20.16;100.00
15477;BME280;7840;42.702;23.296;2023-07-31T02:52:45;94658.16;;;20.18;100.00
15477;BME280;7840;42.702;23.296;2023-07-31T02:55:13;94652.09;;;20.30;100.00
15477;BME280;7840;42.702;23.296;2023-07-31T02:57:41;94662.69;;;20.44;100.00
15477;BME280;7840;42.702;23.296;2023-07-31T03:00:08;94662.44;;;20.45;100.00
15477;BME280;7840;42.702;23.296;2023-07-31T03:02:36;94661.13;;;20.60;100.00
15477;BME280;7840;42.702;23.296;2023-07-31T03:05:04;94669.50;;;20.67;100.00
15477;BME280;7840;42.702;23.296;2023-07-31T03:07:33;94675.22;;;20.57;100.00
15477;BME280;7840;42.702;23.296;2023-07-31T03:10:01;94665.72;;;20.68;100.00
15477;BME280;7840;42.702;23.296;2023-07-31T03:12:28;94668.22;;;20.65;100.00
15477;BME280;7840;42.702;23.296;2023-07-31T03:14:56;94681.38;;;20.75;100.00
15477;BME280;7840;42.702;23.296;2023-07-31T03:17:23;94680.41;;;20.80;100.00
15477;BME280;7840;42.702;23.296;2023-07-31T03:19:51;94674.22;;;20.88;100.00
15477;BME280;7840;42.702;23.296;2023-07-31T03:22:18;94675.81;;;20.71;100.00
15477;BME280;7840;42.702;23.296;2023-07-31T03:24:47;94670.91;;;20.65;100.00
15477;BME280;7840;42.702;23.296;2023-07-31T03:27:14;94681.88;;;20.51;100.00
15477;BME280;7840;42.702;23.296;2023-07-31T03:29:42;94678.38;;;20.68;100.00
15477;BME280;7840;42.702;23.296;2023-07-31T03:32:11;94679.47;;;20.75;100.00
15477;BME280;7840;42.702;23.296;2023-07-31T03:34:38;94681.69;;;20.73;100.00
15477;BME280;7840;42.702;23.296;2023-07-31T03:37:06;94682.94;;;20.76;100.00
15477;BME280;7840;42.702;23.296;2023-07-31T03:39:35;94681.06;;;20.68;100.00
15477;BME280;7840;42.702;23.296;2023-07-31T03:42:04;94680.91;;;20.73;100.00
15477;BME280;7840;42.702;23.296;2023-07-31T03:44:33;94693.88;;;20.80;100.00
15477;BME280;7840;42.702;23.296;2023-07-31T03:47:01;94703.38;;;20.68;100.00
15477;BME280;7840;42.702;23.296;2023-07-31T03:49:28;94703.38;;;20.68;100.00
15477;BME280;7840;42.702;23.296;2023-07-31T03:51:56;94704.31;;;20.72;100.00
15477;BME280;7840;42.702;23.296;2023-07-31T03:54:23;94695.31;;;20.68;100.00
15477;BME280;7840;42.702;23.296;2023-07-31T03:56:51;94701.47;;;20.69;100.00
15477;BME280;7840;42.702;23.296;2023-07-31T03:59:20;94704.50;;;20.67;100.00
15477;BME280;7840;42.702;23.296;2023-07-31T04:01:47;94709.38;;;20.65;100.00
15477;BME280;7840;42.702;23.296;2023-07-31T04:04:15;94705.63;;;20.66;100.00
15477;BME280;7840;42.702;23.296;2023-07-31T04:06:42;94709.88;;;20.67;100.00
15477;BME280;7840;42.702;23.296;2023-07-31T04:09:10;94715.13;;;20.55;100.00
15477;BME280;7840;42.702;23.296;2023-07-31T04:11:37;94712.56;;;20.50;100.00
15477;BME280;7840;42.702;23.296;2023-07-31T04:14:05;94726.53;;;20.52;100.00
15477;BME280;7840;42.702;23.296;2023-07-31T04:16:34;94714.16;;;20.51;100.00
15477;BME280;7840;42.702;23.296;2023-07-31T04:19:01;94714.16;;;20.51;100.00
15477;BME280;7840;42.702;23.296;2023-07-31T04:21:29;94716.22;;;20.54;100.00
15477;BME280;7840;42.702;23.296;2023-07-31T04:23:57;94711.63;;;20.63;100.00
15477;BME280;7840;42.702;23.296;2023-07-31T04:26:24;94718.28;;;20.66;100.00
15477;BME280;7840;42.702;23.296;2023-07-31T04:28:52;94721.28;;;20.64;100.00
15477;BME280;7840;42.702;23.296;2023-07-31T04:33:50;94717.28;;;20.88;100.00
15477;BME280;7840;42.702;23.296;2023-07-31T04:36:18;94731.38;;;20.85;100.00
15477;BME280;7840;42.702;23.296;2023-07-31T04:38:45;94728.38;;;20.95;100.00
15477;BME280;7840;42.702;23.296;2023-07-31T04:41:13;94725.84;;;20.72;100.00
15477;BME280;7840;42.702;23.296;2023-07-31T04:43:40;94717.28;;;20.88;100.00
15477;BME280;7840;42.702;23.296;2023-07-31T04:46:08;94725.69;;;20.86;100.00
15477;BME280;7840;42.702;23.296;2023-07-31T04:48:35;94722.50;;;21.01;100.00
15477;BME280;7840;42.702;23.296;2023-07-31T04:51:04;94723.31;;;20.85;100.00
15477;BME280;7840;42.702;23.296;2023-07-31T04:53:40;94718.38;;;20.95;100.00
15477;BME280;7840;42.702;23.296;2023-07-31T04:56:07;94713.63;;;20.92;100.00
15477;BME280;7840;42.702;23.296;2023-07-31T04:58:35;94718.53;;;20.99;100.00
15477;BME280;7840;42.702;23.296;2023-07-31T05:01:02;94711.09;;;20.96;100.00
15477;BME280;7840;42.702;23.296;2023-07-31T05:03:30;94716.00;;;21.02;100.00
15477;BME280;7840;42.702;23.296;2023-07-31T05:05:57;94717.56;;;21.03;100.00
15477;BME280;7840;42.702;23.296;2023-07-31T05:08:26;94720.50;;;21.37;100.00
15477;BME280;7840;42.702;23.296;2023-07-31T05:10:54;94732.97;;;21.50;100.00
15477;BME280;7840;42.702;23.296;2023-07-31T05:13:21;94733.81;;;21.71;100.00
15477;BME280;7840;42.702;23.296;2023-07-31T05:15:49;94729.50;;;21.41;100.00
15477;BME280;7840;42.702;23.296;2023-07-31T05:18:16;94730.31;;;21.41;100.00
15477;BME280;7840;42.702;23.296;2023-07-31T05:20:44;94732.41;;;21.36;100.00
15477;BME280;7840;42.702;23.296;2023-07-31T05:23:11;94724.78;;;21.38;100.00
15477;BME280;7840;42.702;23.296;2023-07-31T05:25:40;94729.66;;;21.44;100.00
15477;BME280;7840;42.702;23.296;2023-07-31T05:28:08;94725.53;;;21.47;100.00
15477;BME280;7840;42.702;23.296;2023-07-31T05:30:35;94731.13;;;21.42;100.00
15477;BME280;7840;42.702;23.296;2023-07-31T05:33:03;94729.50;;;21.49;100.00
15477;BME280;7840;42.702;23.296;2023-07-31T05:35:30;94734.09;;;21.78;100.00
15477;BME280;7840;42.702;23.296;2023-07-31T05:37:58;94730.44;;;21.83;100.00
15477;BME280;7840;42.702;23.296;2023-07-31T05:40:26;94730.28;;;21.79;100.00
15477;BME280;7840;42.702;23.296;2023-07-31T05:42:54;94728.88;;;21.44;100.00
15477;BME280;7840;42.702;23.296;2023-07-31T05:45:22;94735.84;;;21.45;100.00
15477;BME280;7840;42.702;23.296;2023-07-31T05:47:49;94733.59;;;21.47;100.00
15477;BME280;7840;42.702;23.296;2023-07-31T05:50:17;94738.09;;;21.43;100.00
15477;BME280;7840;42.702;23.296;2023-07-31T05:52:44;94729.84;;;21.39;100.00
15477;BME280;7840;42.702;23.296;2023-07-31T05:55:12;94732.84;;;21.38;100.00
15477;BME280;7840;42.702;23.296;2023-07-31T05:57:39;94743.72;;;21.58;100.00
15477;BME280;7840;42.702;23.296;2023-07-31T06:00:10;94745.09;;;21.35;100.00
15477;BME280;7840;42.702;23.296;2023-07-31T06:02:38;94746.34;;;21.38;100.00
15477;BME280;7840;42.702;23.296;2023-07-31T06:05:08;94746.44;;;21.50;100.00
15477;BME280;7840;42.702;23.296;2023-07-31T06:07:38;94750.56;;;21.47;100.00
15477;BME280;7840;42.702;23.296;2023-07-31T06:10:09;94756.19;;;21.72;100.00
15477;BME280;7840;42.702;23.296;2023-07-31T06:12:37;94763.53;;;21.63;100.00
15477;BME280;7840;42.702;23.296;2023-07-31T06:15:05;94760.69;;;21.89;100.00
15477;BME280;7840;42.702;23.296;2023-07-31T06:17:35;94763.16;;;22.11;100.00
15477;BME280;7840;42.702;23.296;2023-07-31T06:20:02;94763.81;;;22.29;100.00
15477;BME280;7840;42.702;23.296;2023-07-31T06:22:47;94772.91;;;22.24;100.00
15477;BME280;7840;42.702;23.296;2023-07-31T06:25:15;94768.66;;;22.15;100.00
15477;BME280;7840;42.702;23.296;2023-07-31T06:27:43;94766.63;;;22.03;100.00
15477;BME280;7840;42.702;23.296;2023-07-31T06:30:11;94769.03;;;22.04;100.00
15477;BME280;7840;42.702;23.296;2023-07-31T06:32:40;94768.06;;;22.09;100.00
15477;BME280;7840;42.702;23.296;2023-07-31T06:35:08;94773.44;;;22.18;100.00
15477;BME280;7840;42.702;23.296;2023-07-31T06:37:36;94760.91;;;22.13;100.00
15477;BME280;7840;42.702;23.296;2023-07-31T06:40:07;94790.69;;;22.25;100.00
15477;BME280;7840;42.702;23.296;2023-07-31T06:42:35;94762.38;;;22.31;100.00
15477;BME280;7840;42.702;23.296;2023-07-31T06:45:03;94779.09;;;22.46;100.00
15477;BME280;7840;42.702;23.296;2023-07-31T06:47:30;94757.63;;;22.70;100.00
15477;BME280;7840;42.702;23.296;2023-07-31T06:49:59;94759.09;;;22.26;100.00
15477;BME280;7840;42.702;23.296;2023-07-31T06:52:27;94767.00;;;22.52;100.00
15477;BME280;7840;42.702;23.296;2023-07-31T06:55:15;94774.31;;;22.30;100.00
15477;BME280;7840;42.702;23.296;2023-07-31T06:57:44;94763.50;;;22.72;100.00
15477;BME280;7840;42.702;23.296;2023-07-31T07:00:12;94773.19;;;22.94;100.00
15477;BME280;7840;42.702;23.296;2023-07-31T07:02:40;94762.44;;;23.18;100.00
15477;BME280;7840;42.702;23.296;2023-07-31T07:05:09;94767.28;;;23.13;100.00
15477;BME280;7840;42.702;23.296;2023-07-31T07:07:37;94761.44;;;22.69;100.00
15477;BME280;7840;42.702;23.296;2023-07-31T07:10:05;94759.00;;;22.76;100.00
15477;BME280;7840;42.702;23.296;2023-07-31T07:12:34;94756.47;;;22.59;100.00
15477;BME280;7840;42.702;23.296;2023-07-31T07:15:02;94759.19;;;22.71;100.00
15477;BME280;7840;42.702;23.296;2023-07-31T07:17:30;94759.25;;;22.83;100.00
15477;BME280;7840;42.702;23.296;2023-07-31T07:19:58;94763.88;;;22.62;100.00
15477;BME280;7840;42.702;23.296;2023-07-31T07:22:28;94763.66;;;23.09;100.00
15477;BME280;7840;42.702;23.296;2023-07-31T07:24:57;94758.06;;;23.26;100.00
15477;BME280;7840;42.702;23.296;2023-07-31T07:27:24;94765.09;;;23.39;100.00
15477;BME280;7840;42.702;23.296;2023-07-31T07:29:52;94765.28;;;23.22;100.00
15477;BME280;7840;42.702;23.296;2023-07-31T07:32:28;94759.94;;;23.59;100.00
15477;BME280;7840;42.702;23.296;2023-07-31T07:34:56;94750.03;;;23.51;100.00
15477;BME280;7840;42.702;23.296;2023-07-31T07:37:23;94756.66;;;23.53;100.00
15477;BME280;7840;42.702;23.296;2023-07-31T07:39:52;94756.16;;;23.84;100.00
15477;BME280;7840;42.702;23.296;2023-07-31T07:42:19;94767.22;;;24.16;100.00
15477;BME280;7840;42.702;23.296;2023-07-31T07:44:47;94776.88;;;23.80;100.00
15477;BME280;7840;42.702;23.296;2023-07-31T07:47:14;94768.38;;;23.57;100.00
15477;BME280;7840;42.702;23.296;2023-07-31T07:49:42;94764.72;;;23.98;100.00
15477;BME280;7840;42.702;23.296;2023-07-31T07:52:10;94759.53;;;23.93;100.00
15477;BME280;7840;42.702;23.296;2023-07-31T07:54:37;94760.41;;;24.22;100.00
15477;BME280;7840;42.702;23.296;2023-07-31T07:57:06;94762.38;;;24.62;100.00
15477;BME280;7840;42.702;23.296;2023-07-31T07:59:34;94769.78;;;24.77;100.00
15477;BME280;7840;42.702;23.296;2023-07-31T08:02:01;94777.78;;;24.09;100.00
15477;BME280;7840;42.702;23.296;2023-07-31T08:04:29;94786.16;;;24.16;100.00
15477;BME280;7840;42.702;23.296;2023-07-31T08:06:57;94774.16;;;24.41;100.00
15477;BME280;7840;42.702;23.296;2023-07-31T08:09:24;94776.00;;;24.00;100.00
15477;BME280;7840;42.702;23.296;2023-07-31T08:11:52;94776.66;;;24.22;100.00
15477;BME280;7840;42.702;23.296;2023-07-31T08:14:22;94776.38;;;24.64;100.00
15477;BME280;7840;42.702;23.296;2023-07-31T08:16:49;94766.63;;;24.75;100.00
15477;BME280;7840;42.702;23.296;2023-07-31T08:19:17;94779.97;;;24.68;100.00
15477;BME280;7840;42.702;23.296;2023-07-31T08:21:44;94769.34;;;24.35;100.00
15477;BME280;7840;42.702;23.296;2023-07-31T08:24:12;94783.19;;;24.58;100.00
15477;BME280;7840;42.702;23.296;2023-07-31T08:26:40;94779.25;;;24.83;100.00
15477;BME280;7840;42.702;23.296;2023-07-31T08:29:08;94780.56;;;25.29;100.00
15477;BME280;7840;42.702;23.296;2023-07-31T08:31:37;94769.94;;;25.08;98.42
15477;BME280;7840;42.702;23.296;2023-07-31T08:34:04;94766.03;;;24.53;97.53
15477;BME280;7840;42.702;23.296;2023-07-31T08:36:32;94769.66;;;24.21;100.00
15477;BME280;7840;42.702;23.296;2023-07-31T08:38:59;94765.53;;;24.64;100.00
15477;BME280;7840;42.702;23.296;2023-07-31T08:41:28;94768.72;;;24.66;100.00
15477;BME280;7840;42.702;23.296;2023-07-31T08:43:55;94777.09;;;24.48;99.81
15477;BME280;7840;42.702;23.296;2023-07-31T08:46:24;94762.94;;;25.07;99.36
15477;BME280;7840;42.702;23.296;2023-07-31T08:48:53;94753.44;;;25.01;93.88
15477;BME280;7840;42.702;23.296;2023-07-31T08:51:24;94753.66;;;25.08;96.74
15477;BME280;7840;42.702;23.296;2023-07-31T08:53:53;94752.41;;;25.65;91.05
15477;BME280;7840;42.702;23.296;2023-07-31T08:56:21;94756.53;;;25.59;89.58
15477;BME280;7840;42.702;23.296;2023-07-31T08:58:51;94767.00;;;25.45;92.57
15477;BME280;7840;42.702;23.296;2023-07-31T09:01:19;94767.84;;;25.18;92.22
15477;BME280;7840;42.702;23.296;2023-07-31T09:03:47;94759.09;;;24.96;91.60
15477;BME280;7840;42.702;23.296;2023-07-31T09:06:19;94761.81;;;25.84;86.89
15477;BME280;7840;42.702;23.296;2023-07-31T09:08:49;94750.78;;;25.77;84.01
15477;BME280;7840;42.702;23.296;2023-07-31T09:11:17;94758.50;;;25.75;88.99
15477;BME280;7840;42.702;23.296;2023-07-31T09:13:46;94762.13;;;26.30;83.00
15477;BME280;7840;42.702;23.296;2023-07-31T09:16:15;94758.59;;;26.45;80.96
15477;BME280;7840;42.702;23.296;2023-07-31T09:18:58;94752.31;;;26.60;83.43
15477;BME280;7840;42.702;23.296;2023-07-31T09:21:29;94753.47;;;26.59;79.58
15477;BME280;7840;42.702;23.296;2023-07-31T09:23:57;94744.75;;;26.89;75.68
15477;BME280;7840;42.702;23.296;2023-07-31T09:26:32;94742.28;;;27.65;73.87
15477;BME280;7840;42.702;23.296;2023-07-31T09:29:00;94739.63;;;27.91;71.49
15477;BME280;7840;42.702;23.296;2023-07-31T09:31:39;94726.41;;;28.16;67.64
15477;BME280;7840;42.702;23.296;2023-07-31T09:34:07;94732.16;;;27.65;72.87
15477;BME280;7840;42.702;23.296;2023-07-31T09:36:42;94727.75;;;27.11;76.77
15477;BME280;7840;42.702;23.296;2023-07-31T09:39:11;94737.88;;;27.34;74.93
15477;BME280;7840;42.702;23.296;2023-07-31T09:41:40;94731.16;;;27.50;70.59
15477;BME280;7840;42.702;23.296;2023-07-31T09:44:08;94729.63;;;27.99;69.34
15477;BME280;7840;42.702;23.296;2023-07-31T09:46:36;94724.75;;;28.34;66.74
15477;BME280;7840;42.702;23.296;2023-07-31T09:49:05;94719.28;;;28.08;65.56
15477;BME280;7840;42.702;23.296;2023-07-31T09:51:33;94711.13;;;28.08;66.71
15477;BME280;7840;42.702;23.296;2023-07-31T09:54:09;94724.09;;;28.18;65.05
15477;BME280;7840;42.702;23.296;2023-07-31T09:56:42;94720.19;;;27.93;68.40
15477;BME280;7840;42.702;23.296;2023-07-31T09:59:13;94715.13;;;27.91;65.28
15477;BME280;7840;42.702;23.296;2023-07-31T10:01:43;94705.69;;;28.12;66.93
15477;BME280;7840;42.702;23.296;2023-07-31T10:04:12;94721.19;;;28.30;65.78
15477;BME280;7840;42.702;23.296;2023-07-31T10:06:42;94714.31;;;27.87;64.71
15477;BME280;7840;42.702;23.296;2023-07-31T10:09:15;94715.13;;;27.22;68.62
15477;BME280;7840;42.702;23.296;2023-07-31T10:11:47;94716.06;;;27.76;65.72
15477;BME280;7840;42.702;23.296;2023-07-31T10:14:18;94713.56;;;27.90;63.97
15477;BME280;7840;42.702;23.296;2023-07-31T10:16:48;94715.09;;;27.88;65.42
15477;BME280;7840;42.702;23.296;2023-07-31T10:19:17;94719.56;;;26.92;66.47
15477;BME280;7840;42.702;23.296;2023-07-31T10:21:46;94709.25;;;27.01;68.19
15477;BME280;7840;42.702;23.296;2023-07-31T10:24:17;94715.28;;;27.75;64.39
15477;BME280;7840;42.702;23.296;2023-07-31T10:26:46;94701.25;;;28.26;62.37
15477;BME280;7840;42.702;23.296;2023-07-31T10:29:16;94712.03;;;28.19;61.62
15477;BME280;7840;42.702;23.296;2023-07-31T10:31:45;94708.91;;;28.44;60.92
15477;BME280;7840;42.702;23.296;2023-07-31T10:34:14;94702.56;;;28.66;59.11
15477;BME280;7840;42.702;23.296;2023-07-31T10:36:42;94707.97;;;28.93;58.35
15477;BME280;7840;42.702;23.296;2023-07-31T10:42:12;94700.00;;;28.80;59.51
15477;BME280;7840;42.702;23.296;2023-07-31T10:44:46;94695.75;;;29.54;56.62
15477;BME280;7840;42.702;23.296;2023-07-31T10:47:15;94702.28;;;29.46;56.79
15477;BME280;7840;42.702;23.296;2023-07-31T10:49:45;94696.06;;;29.08;55.96
15477;BME280;7840;42.702;23.296;2023-07-31T10:52:15;94689.44;;;28.75;57.55
15477;BME280;7840;42.702;23.296;2023-07-31T10:54:49;94684.84;;;27.70;59.50
15477;BME280;7840;42.702;23.296;2023-07-31T10:57:21;94705.81;;;27.23;62.83
15477;BME280;7840;42.702;23.296;2023-07-31T10:59:50;94693.19;;;27.35;60.53
15477;BME280;7840;42.702;23.296;2023-07-31T11:02:24;94679.16;;;27.56;59.72
15477;BME280;7840;42.702;23.296;2023-07-31T11:05:06;94693.28;;;28.41;56.38
15477;BME280;7840;42.702;23.296;2023-07-31T11:07:47;94667.41;;;29.28;52.89
15477;BME280;7840;42.702;23.296;2023-07-31T11:10:17;94670.84;;;29.59;52.20
15477;BME280;7840;42.702;23.296;2023-07-31T11:12:47;94676.44;;;29.36;54.00
15477;BME280;7840;42.702;23.296;2023-07-31T11:15:14;94681.63;;;29.45;52.44
15477;BME280;7840;42.702;23.296;2023-07-31T11:17:42;94671.84;;;29.91;50.80
15477;BME280;7840;42.702;23.296;2023-07-31T11:20:10;94669.09;;;30.54;48.47
15477;BME280;7840;42.702;23.296;2023-07-31T11:22:38;94667.28;;;29.55;50.03
15477;BME280;7840;42.702;23.296;2023-07-31T11:25:08;94673.97;;;28.86;53.85
15477;BME280;7840;42.702;23.296;2023-07-31T11:27:39;94674.56;;;28.36;54.33
15477;BME280;7840;42.702;23.296;2023-07-31T11:30:11;94673.34;;;28.97;53.80
15477;BME280;7840;42.702;23.296;2023-07-31T11:32:38;94666.72;;;29.79;50.53
15477;BME280;7840;42.702;23.296;2023-07-31T11:35:06;94670.53;;;30.26;50.51
15477;BME280;7840;42.702;23.296;2023-07-31T11:37:41;94665.03;;;29.23;54.65
15477;BME280;7840;42.702;23.296;2023-07-31T11:40:09;94667.53;;;28.98;54.30
15477;BME280;7840;42.702;23.296;2023-07-31T11:42:37;94666.75;;;29.38;54.94
15477;BME280;7840;42.702;23.296;2023-07-31T11:45:06;94653.59;;;28.73;53.94
15477;BME280;7840;42.702;23.296;2023-07-31T11:47:36;94664.41;;;29.40;53.97
15477;BME280;7840;42.702;23.296;2023-07-31T11:50:05;94666.31;;;29.33;52.88
15477;BME280;7840;42.702;23.296;2023-07-31T11:52:37;94652.13;;;29.61;49.96
15477;BME280;7840;42.702;23.296;2023-07-31T11:55:08;94654.47;;;29.62;52.70
15477;BME280;7840;42.702;23.296;2023-07-31T11:57:39;94653.06;;;29.79;51.35
15477;BME280;7840;42.702;23.296;2023-07-31T12:00:09;94666.19;;;29.63;53.44
15477;BME280;7840;42.702;23.296;2023-07-31T12:02:38;94654.41;;;29.11;55.67
15477;BME280;7840;42.702;23.296;2023-07-31T12:05:16;94650.03;;;29.03;54.50
15477;BME280;7840;42.702;23.296;2023-07-31T12:07:45;94660.06;;;28.95;56.41
15477;BME280;7840;42.702;23.296;2023-07-31T12:10:23;94644.69;;;29.13;56.87
15477;BME280;7840;42.702;23.296;2023-07-31T12:13:00;94644.09;;;28.94;56.05
15477;BME280;7840;42.702;23.296;2023-07-31T12:15:36;94642.53;;;29.33;55.47
15477;BME280;7840;42.702;23.296;2023-07-31T12:18:07;94641.09;;;30.02;52.34
15477;BME280;7840;42.702;23.296;2023-07-31T12:20:35;94635.78;;;29.64;52.99
15477;BME280;7840;42.702;23.296;2023-07-31T12:23:12;94628.53;;;29.38;53.57
15477;BME280;7840;42.702;23.296;2023-07-31T12:25:40;94633.63;;;29.91;51.20
15477;BME280;7840;42.702;23.296;2023-07-31T12:28:09;94642.66;;;30.03;50.20
15477;BME280;7840;42.702;23.296;2023-07-31T12:30:40;94639.84;;;29.88;49.43
15477;BME280;7840;42.702;23.296;2023-07-31T12:33:14;94634.00;;;29.38;51.40
15477;BME280;7840;42.702;23.296;2023-07-31T12:35:43;94632.69;;;29.69;51.59
15477;BME280;7840;42.702;23.296;2023-07-31T12:38:11;94631.91;;;29.69;50.61
15477;BME280;7840;42.702;23.296;2023-07-31T12:40:40;94634.72;;;28.91;52.61
15477;BME280;7840;42.702;23.296;2023-07-31T12:43:08;94631.44;;;28.78;54.45
15477;BME280;7840;42.702;23.296;2023-07-31T12:45:36;94623.44;;;28.93;54.54
15477;BME280;7840;42.702;23.296;2023-07-31T12:48:04;94626.78;;;29.16;53.28
15477;BME280;7840;42.702;23.296;2023-07-31T12:50:32;94621.03;;;29.25;53.97
15477;BME280;7840;42.702;23.296;2023-07-31T12:53:03;94627.72;;;28.60;54.09
15477;BME280;7840;42.702;23.296;2023-07-31T12:55:31;94628.78;;;28.85;54.08
15477;BME280;7840;42.702;23.296;2023-07-31T12:58:00;94611.75;;;29.36;52.55
15477;BME280;7840;42.702;23.296;2023-07-31T13:00:28;94612.53;;;29.88;53.35
15477;BME280;7840;42.702;23.296;2023-07-31T13:02:55;94607.13;;;29.95;51.90
15477;BME280;7840;42.702;23.296;2023-07-31T13:05:23;94607.69;;;29.64;50.83
15477;BME280;7840;42.702;23.296;2023-07-31T13:07:52;94611.19;;;29.61;51.23
15477;BME280;7840;42.702;23.296;2023-07-31T13:10:19;94602.53;;;29.07;53.62